Time;durP1;ratioP1;P1;durP2;ratioP2;P2;SDS_P1;SDS_P2;PMS_P1;PMS_P2;Temp;Humidity;BMP_temperature;BMP_pressure;BME280_temperature;BME280_humidity;BME280_pressure;Samples;Min_cycle;Max_cycle;Signal;HPM_P1;HPM_P2
2022/05/24 00:00:35;;;;;;;1.05;0.80;;;17.30;99.90;;;;;;4123720;28;20062;-76
2022/05/24 00:02:36;;;;;;;2.38;0.80;;;17.30;99.90;;;;;;4124172;28;20059;-77
2022/05/24 00:04:38;;;;;;;6.97;0.88;;;17.30;99.90;;;;;;4126171;28;20130;-76
2022/05/24 00:06:40;;;;;;;5.00;0.60;;;17.30;99.90;;;;;;4126859;28;20059;-76
2022/05/24 00:08:42;;;;;;;1.05;0.47;;;17.30;99.90;;;;;;4121723;28;20712;-75
2022/05/24 00:10:44;;;;;;;0.90;0.70;;;17.20;99.90;;;;;;4129897;28;20059;-76
2022/05/24 00:12:45;;;;;;;1.45;0.40;;;17.20;99.90;;;;;;4122051;28;20842;-76
2022/05/24 00:17:07;;;;;;;1.25;0.30;;;17.00;99.90;;;;;;4123419;28;20079;-76
2022/05/24 00:19:09;;;;;;;1.55;0.38;;;17.10;99.90;;;;;;4119545;28;20704;-76
2022/05/24 00:21:11;;;;;;;0.80;0.40;;;17.10;99.90;;;;;;4131680;28;20062;-76
2022/05/24 00:23:13;;;;;;;1.23;0.50;;;17.00;99.90;;;;;;4119191;28;20059;-76
2022/05/24 00:25:15;;;;;;;1.55;0.40;;;17.00;99.90;;;;;;4119153;28;20574;-75
2022/05/24 00:27:17;;;;;;;0.38;0.38;;;16.90;99.90;;;;;;4118202;28;20626;-76
2022/05/24 00:29:20;;;;;;;2.45;0.50;;;16.90;99.90;;;;;;4120805;28;20148;-75
2022/05/24 00:31:22;;;;;;;0.30;0.30;;;16.90;99.90;;;;;;4122467;28;20699;-75
2022/05/24 00:33:25;;;;;;;0.95;0.30;;;16.90;99.90;;;;;;4120889;28;20065;-76
2022/05/24 00:35:27;;;;;;;1.33;0.30;;;16.80;99.90;;;;;;4122758;28;20763;-76
2022/05/24 00:37:29;;;;;;;0.85;0.35;;;16.70;99.90;;;;;;4121785;28;20749;-76
2022/05/24 00:39:31;;;;;;;1.23;0.40;;;16.60;99.90;;;;;;4121790;28;20070;-76
2022/05/24 00:41:40;;;;;;;0.80;0.40;;;16.60;99.90;;;;;;4128418;28;20822;-75
2022/05/24 00:43:52;;;;;;;0.20;0.20;;;16.60;99.90;;;;;;4127272;28;20063;-76
2022/05/24 00:45:58;;;;;;;1.48;0.30;;;16.60;99.90;;;;;;4121756;28;20055;-76
2022/05/24 00:48:06;;;;;;;1.42;0.30;;;16.60;99.90;;;;;;4122410;28;20058;-76
2022/05/24 00:50:14;;;;;;;0.30;0.30;;;16.60;99.90;;;;;;4127068;28;20086;-76
2022/05/24 00:52:25;;;;;;;0.75;0.20;;;16.60;99.90;;;;;;4121667;28;20066;-76
2022/05/24 00:54:31;;;;;;;0.28;0.15;;;16.50;99.90;;;;;;4125051;28;20070;-75
2022/05/24 00:56:35;;;;;;;0.82;0.20;;;16.40;99.90;;;;;;4124364;28;20094;-75
2022/05/24 00:59:02;;;;;;;0.17;0.17;;;16.40;99.90;;;;;;4122853;28;20060;-75
2022/05/24 01:01:14;;;;;;;0.20;0.20;;;16.40;99.90;;;;;;4123865;28;20655;-76
2022/05/24 01:03:16;;;;;;;0.17;0.17;;;16.30;99.90;;;;;;4125401;28;20170;-76
2022/05/24 01:05:23;;;;;;;0.50;0.47;;;16.30;99.90;;;;;;4128017;28;20890;-76
2022/05/24 01:07:25;;;;;;;0.63;0.30;;;16.20;99.90;;;;;;4127207;28;20065;-76
2022/05/24 01:09:29;;;;;;;0.25;0.25;;;16.20;99.90;;;;;;4124964;28;20151;-76
2022/05/24 01:11:36;;;;;;;0.22;0.15;;;16.20;99.90;;;;;;4125211;28;20112;-77
2022/05/24 01:13:38;;;;;;;0.25;0.20;;;16.10;99.90;;;;;;4126363;28;20199;-76
2022/05/24 01:15:43;;;;;;;1.55;0.20;;;16.10;99.90;;;;;;4124534;28;20101;-75
2022/05/24 01:17:49;;;;;;;0.30;0.30;;;16.20;99.90;;;;;;4129974;28;20722;-76
2022/05/24 01:19:50;;;;;;;0.30;0.30;;;16.10;99.90;;;;;;4122042;28;20129;-76
2022/05/24 01:21:59;;;;;;;1.42;0.30;;;16.10;99.90;;;;;;4123271;28;20058;-76
2022/05/24 01:24:28;;;;;;;0.20;0.20;;;16.20;99.90;;;;;;4122864;28;20692;-76
2022/05/24 01:26:37;;;;;;;0.30;0.30;;;16.20;99.90;;;;;;4121651;28;20055;-74
2022/05/24 01:28:50;;;;;;;1.67;0.30;;;16.20;99.90;;;;;;4120899;28;20062;-75
2022/05/24 01:30:53;;;;;;;0.85;0.30;;;16.20;99.90;;;;;;4121947;28;20305;-75
2022/05/24 01:37:38;;;;;;;0.22;0.22;;;16.00;99.90;;;;;;4119114;28;20065;-76
2022/05/24 01:39:44;;;;;;;0.30;0.30;;;16.10;99.90;;;;;;4119179;28;20158;-76
2022/05/24 01:41:48;;;;;;;1.40;0.30;;;16.10;99.90;;;;;;4118201;28;20063;-76
2022/05/24 01:43:53;;;;;;;1.10;0.20;;;16.10;99.90;;;;;;4119030;28;20087;-76
2022/05/24 01:46:03;;;;;;;0.20;0.20;;;16.10;99.90;;;;;;4119624;28;20063;-76
2022/05/24 01:48:09;;;;;;;;;;;16.10;99.90;;;;;;4120334;28;20051;-76
2022/05/24 01:50:16;;;;;;;0.20;0.20;;;16.10;99.90;;;;;;4119111;28;20041;-76
2022/05/24 01:52:18;;;;;;;0.73;0.20;;;16.10;99.90;;;;;;4122588;28;20059;-75
2022/05/24 01:54:21;;;;;;;0.30;0.30;;;16.10;99.90;;;;;;4118861;28;20082;-76
2022/05/24 01:56:45;;;;;;;0.22;0.20;;;16.10;99.90;;;;;;4120751;28;20146;-76
2022/05/24 01:58:53;;;;;;;0.20;0.20;;;16.00;99.90;;;;;;4152681;22;20951;-72
2022/05/24 02:01:14;;;;;;;1.65;0.28;;;16.00;99.90;;;;;;4182724;28;20062;-72
2022/05/24 02:03:16;;;;;;;0.85;0.32;;;16.00;99.90;;;;;;4183562;28;21080;-72
2022/05/24 02:05:44;;;;;;;0.45;0.30;;;15.90;99.90;;;;;;4190813;28;20757;-72
2022/05/24 02:07:47;;;;;;;0.20;0.20;;;15.90;99.90;;;;;;4170266;28;20057;-72
2022/05/24 02:09:52;;;;;;;0.30;0.30;;;15.90;99.90;;;;;;4166899;28;20097;-72
2022/05/24 02:11:58;;;;;;;0.30;0.30;;;15.90;99.90;;;;;;4169659;28;20062;-72
2022/05/24 02:14:24;;;;;;;0.22;0.20;;;15.90;99.90;;;;;;4173098;28;20064;-72
2022/05/24 02:16:32;;;;;;;0.68;0.40;;;15.90;99.90;;;;;;4170776;28;20054;-72
2022/05/24 02:18:34;;;;;;;0.55;0.55;;;16.00;99.90;;;;;;4176911;28;20176;-72
2022/05/24 02:20:39;;;;;;;0.30;0.30;;;16.00;99.90;;;;;;4176282;28;20163;-72
2022/05/24 02:22:42;;;;;;;0.17;0.17;;;16.00;99.90;;;;;;4181987;28;20052;-72
2022/05/24 02:24:44;;;;;;;0.75;0.28;;;15.90;99.90;;;;;;4179344;28;20058;-72
2022/05/24 02:26:47;;;;;;;0.45;0.35;;;16.00;99.90;;;;;;4182236;28;20139;-71
2022/05/24 02:28:50;;;;;;;0.30;0.30;;;15.90;99.90;;;;;;4171201;28;20620;-72
2022/05/24 02:30:58;;;;;;;0.20;0.20;;;15.90;99.90;;;;;;4180170;28;20117;-72
2022/05/24 02:33:01;;;;;;;0.30;0.30;;;15.90;99.90;;;;;;4177126;28;20607;-72
2022/05/24 02:35:03;;;;;;;0.20;0.20;;;15.90;99.90;;;;;;4167037;28;20916;-71
2022/05/24 02:37:04;;;;;;;0.50;0.40;;;15.90;99.90;;;;;;4173874;28;20058;-72
2022/05/24 02:39:07;;;;;;;0.68;0.32;;;15.90;99.90;;;;;;4175441;28;20057;-71
2022/05/24 02:43:29;;;;;;;1.65;0.38;;;15.90;99.90;;;;;;4171239;28;20061;-72
2022/05/24 02:45:31;;;;;;;0.57;0.28;;;15.90;99.90;;;;;;4179672;28;20089;-72
2022/05/24 02:47:33;;;;;;;0.52;0.30;;;15.90;99.90;;;;;;4171565;28;20058;-72
2022/05/24 02:49:34;;;;;;;0.50;0.35;;;15.80;99.90;;;;;;4183009;28;20136;-72
2022/05/24 02:51:37;;;;;;;0.50;0.50;;;15.80;99.90;;;;;;4174156;28;20847;-72
2022/05/24 02:53:40;;;;;;;0.32;0.32;;;15.70;99.90;;;;;;4175029;28;20097;-72
2022/05/24 02:55:42;;;;;;;1.75;0.80;;;15.70;99.90;;;;;;4180285;28;20068;-71
2022/05/24 02:57:44;;;;;;;0.80;0.52;;;15.70;99.90;;;;;;4173794;28;20058;-72
2022/05/24 02:59:46;;;;;;;0.57;0.30;;;15.60;99.90;;;;;;4180610;28;20784;-72
2022/05/24 03:01:47;;;;;;;1.23;0.80;;;15.50;99.90;;;;;;4172466;28;20061;-72
2022/05/24 03:03:51;;;;;;;0.63;0.40;;;15.50;99.90;;;;;;4169227;28;20058;-72
2022/05/24 03:05:52;;;;;;;0.40;0.40;;;15.50;99.90;;;;;;4170134;28;20842;-71
2022/05/24 03:10:14;;;;;;;0.45;0.30;;;15.40;99.90;;;;;;4175528;28;20079;-72
2022/05/24 03:14:36;;;;;;;0.30;0.30;;;15.40;99.90;;;;;;4180469;28;20053;-72
2022/05/24 03:16:38;;;;;;;3.72;0.68;;;15.40;99.90;;;;;;4188229;28;20049;-71
2022/05/24 03:18:41;;;;;;;0.40;0.40;;;15.40;99.90;;;;;;4183448;28;20083;-72
2022/05/24 03:20:43;;;;;;;0.30;0.30;;;15.40;99.90;;;;;;4179520;28;20113;-72
2022/05/24 03:22:45;;;;;;;0.60;0.30;;;15.50;99.90;;;;;;4180646;28;20787;-72
2022/05/24 03:24:47;;;;;;;3.38;0.40;;;15.50;99.90;;;;;;4181769;28;20821;-71
2022/05/24 03:26:49;;;;;;;0.30;0.30;;;15.50;99.90;;;;;;4181150;28;20104;-71
2022/05/24 03:28:51;;;;;;;0.45;0.38;;;15.60;99.90;;;;;;4183520;28;20045;-72
2022/05/24 03:30:54;;;;;;;0.47;0.38;;;15.60;99.90;;;;;;4183619;28;20057;-72
2022/05/24 03:32:56;;;;;;;1.15;0.30;;;15.60;99.90;;;;;;4178057;28;20082;-72
2022/05/24 03:35:01;;;;;;;0.65;0.52;;;15.60;99.90;;;;;;4182561;28;20057;-72
2022/05/24 03:37:03;;;;;;;0.20;0.20;;;15.60;99.90;;;;;;4180034;28;20148;-72
2022/05/24 03:39:07;;;;;;;2.10;0.57;;;15.60;99.90;;;;;;4178159;28;20975;-72
2022/05/24 03:41:08;;;;;;;0.50;0.50;;;15.70;99.90;;;;;;4181543;28;20051;-72
2022/05/24 03:43:14;;;;;;;0.40;0.30;;;15.60;99.90;;;;;;4179665;28;20057;-71
2022/05/24 03:45:16;;;;;;;0.40;0.30;;;15.60;99.90;;;;;;4181361;28;20054;-71
2022/05/24 03:47:18;;;;;;;1.98;0.40;;;15.60;99.90;;;;;;4175557;28;20903;-72
2022/05/24 03:49:20;;;;;;;1.85;0.40;;;15.50;99.90;;;;;;4181227;28;20595;-71
2022/05/24 03:51:22;;;;;;;0.57;0.30;;;15.50;99.90;;;;;;4168701;28;20058;-71
2022/05/24 03:53:25;;;;;;;0.63;0.40;;;15.50;99.90;;;;;;4176146;28;20061;-72
2022/05/24 03:55:26;;;;;;;0.30;0.30;;;15.40;99.90;;;;;;4172723;28;20133;-72
2022/05/24 03:59:48;;;;;;;0.65;0.63;;;15.40;99.90;;;;;;4176730;28;20057;-72
2022/05/24 04:01:51;;;;;;;0.30;0.30;;;15.40;99.90;;;;;;4184239;28;20108;-72
2022/05/24 04:03:53;;;;;;;0.43;0.35;;;15.40;99.90;;;;;;4181005;28;20815;-72
2022/05/24 04:05:55;;;;;;;3.08;0.52;;;15.50;99.90;;;;;;4184221;28;20120;-72
2022/05/24 04:07:58;;;;;;;0.32;0.32;;;15.50;99.90;;;;;;4183929;28;20054;-71
2022/05/24 04:10:02;;;;;;;0.50;0.50;;;15.50;99.90;;;;;;4182723;28;20990;-72
2022/05/24 04:12:04;;;;;;;0.57;0.50;;;15.50;99.90;;;;;;4182355;28;20922;-72
2022/05/24 04:14:06;;;;;;;0.38;0.38;;;15.50;99.90;;;;;;4176462;28;20777;-72
2022/05/24 04:16:09;;;;;;;3.03;0.50;;;15.50;99.90;;;;;;4173461;28;20063;-71
2022/05/24 04:18:11;;;;;;;0.70;0.30;;;15.60;99.90;;;;;;4178310;28;20041;-72
2022/05/24 04:20:13;;;;;;;0.60;0.52;;;15.60;99.90;;;;;;4182308;28;20089;-72
2022/05/24 04:22:15;;;;;;;0.70;0.60;;;15.50;99.90;;;;;;4185540;28;20087;-72
2022/05/24 04:24:17;;;;;;;0.50;0.50;;;15.50;99.90;;;;;;4186348;28;20060;-71
2022/05/24 04:26:18;;;;;;;1.80;0.57;;;15.50;99.90;;;;;;4186996;28;20053;-72
2022/05/24 04:28:21;;;;;;;2.38;0.40;;;15.50;99.90;;;;;;4174897;28;20200;-72
2022/05/24 04:30:23;;;;;;;1.45;0.65;;;15.60;99.90;;;;;;4191825;28;20049;-72
2022/05/24 04:32:25;;;;;;;3.80;0.40;;;15.60;99.90;;;;;;4186168;28;20833;-72
2022/05/24 04:34:27;;;;;;;2.67;0.40;;;15.70;99.90;;;;;;4178874;28;20085;-72
2022/05/24 04:36:28;;;;;;;1.85;0.80;;;15.70;99.90;;;;;;4170631;28;20066;-72
2022/05/24 04:38:30;;;;;;;0.65;0.50;;;15.70;99.90;;;;;;4172876;28;21215;-72
2022/05/24 04:42:52;;;;;;;0.50;0.50;;;15.70;99.90;;;;;;4183852;28;20194;-72
2022/05/24 04:44:59;;;;;;;0.47;0.47;;;15.70;99.90;;;;;;4181558;28;21134;-72
2022/05/24 04:47:10;;;;;;;1.42;0.80;;;15.70;99.90;;;;;;4178966;28;20062;-72
2022/05/24 04:49:12;;;;;;;0.50;0.50;;;15.70;99.90;;;;;;4176531;28;20089;-72
2022/05/24 04:51:14;;;;;;;0.43;0.43;;;15.70;99.90;;;;;;4183563;28;20675;-72
2022/05/24 04:53:15;;;;;;;0.40;0.40;;;15.70;99.90;;;;;;4181051;28;20659;-71
2022/05/24 04:55:17;;;;;;;0.52;0.50;;;15.70;99.90;;;;;;4185951;28;20064;-72
2022/05/24 04:57:20;;;;;;;0.73;0.50;;;15.80;99.90;;;;;;4183618;28;20811;-72
2022/05/24 04:59:22;;;;;;;0.80;0.60;;;15.80;99.90;;;;;;4181302;28;20084;-72
2022/05/24 05:01:23;;;;;;;1.02;0.60;;;15.80;99.90;;;;;;4178195;28;20188;-72
2022/05/24 05:03:25;;;;;;;0.52;0.52;;;15.90;99.90;;;;;;4172305;28;20095;-72
2022/05/24 05:05:30;;;;;;;1.15;0.60;;;15.80;99.90;;;;;;4178063;28;20062;-72
2022/05/24 05:07:32;;;;;;;0.70;0.52;;;15.90;99.90;;;;;;4175244;28;20061;-72
2022/05/24 05:09:34;;;;;;;2.17;0.63;;;16.00;99.90;;;;;;4181026;28;20059;-72
2022/05/24 05:11:36;;;;;;;0.85;0.50;;;16.10;99.90;;;;;;4182139;28;20054;-72
2022/05/24 05:13:38;;;;;;;0.90;0.60;;;16.20;99.90;;;;;;4179396;28;20896;-72
2022/05/24 05:15:40;;;;;;;0.60;0.60;;;16.20;99.90;;;;;;4183392;28;20064;-72
2022/05/24 05:17:42;;;;;;;2.78;0.98;;;16.30;99.90;;;;;;4183148;28;20065;-72
2022/05/24 05:19:44;;;;;;;1.98;0.50;;;16.20;99.90;;;;;;4178731;28;20061;-72
2022/05/24 05:21:51;;;;;;;0.85;0.50;;;16.20;99.90;;;;;;4172460;28;20057;-72
2022/05/24 05:23:52;;;;;;;0.90;0.47;;;16.20;99.90;;;;;;4182718;28;20057;-72
2022/05/24 05:25:54;;;;;;;1.35;0.60;;;16.20;99.90;;;;;;4183172;28;20103;-72
2022/05/24 05:27:56;;;;;;;0.65;0.55;;;16.20;99.90;;;;;;4183114;28;20864;-71
2022/05/24 05:32:26;;;;;;;1.65;0.60;;;16.30;99.90;;;;;;4180177;28;20068;-72
2022/05/24 05:34:28;;;;;;;;;;;16.40;99.90;;;;;;4177639;28;20897;-72
2022/05/24 05:36:32;;;;;;;0.90;0.70;;;16.50;99.90;;;;;;4170770;28;19987;-72
2022/05/24 05:38:34;;;;;;;0.75;0.65;;;16.80;99.90;;;;;;4177078;28;20080;-71
2022/05/24 05:40:36;;;;;;;2.45;0.50;;;17.00;99.90;;;;;;4176501;28;20057;-72
2022/05/24 05:42:38;;;;;;;0.43;0.43;;;17.20;99.90;;;;;;4180991;28;20871;-72
2022/05/24 05:44:40;;;;;;;6.18;0.93;;;17.20;98.90;;;;;;4191866;28;20062;-72
2022/05/24 05:46:42;;;;;;;0.75;0.70;;;17.20;98.70;;;;;;4184258;28;20788;-72
2022/05/24 05:48:44;;;;;;;1.63;0.63;;;17.30;98.00;;;;;;4179662;28;20879;-72
2022/05/24 05:50:47;;;;;;;2.75;0.60;;;17.30;97.40;;;;;;4181890;28;20061;-72
2022/05/24 05:52:50;;;;;;;2.80;0.80;;;17.30;96.90;;;;;;4185354;28;20871;-72
2022/05/24 05:54:51;;;;;;;3.58;1.10;;;17.40;97.00;;;;;;4180625;28;20072;-73
2022/05/24 05:56:54;;;;;;;1.48;0.52;;;17.50;96.60;;;;;;4181723;28;20057;-72
2022/05/24 05:58:56;;;;;;;0.80;0.47;;;17.60;96.40;;;;;;4181331;28;20057;-73
2022/05/24 06:01:00;;;;;;;0.85;0.50;;;17.70;96.00;;;;;;4171575;28;20064;-72
2022/05/24 06:03:01;;;;;;;1.65;0.63;;;17.80;95.50;;;;;;4175387;28;20647;-72
2022/05/24 06:05:05;;;;;;;1.25;0.70;;;17.50;94.80;;;;;;4182248;28;20060;-72
2022/05/24 06:07:07;;;;;;;0.85;0.63;;;17.50;95.10;;;;;;4176220;28;20064;-73
2022/05/24 06:09:10;;;;;;;2.40;0.65;;;17.50;95.60;;;;;;4172593;28;20062;-72
2022/05/24 06:11:11;;;;;;;3.92;0.80;;;17.50;94.80;;;;;;4179846;28;20049;-73
2022/05/24 06:13:13;;;;;;;1.55;0.57;;;17.50;95.00;;;;;;4174883;28;20060;-73
2022/05/24 06:15:15;;;;;;;1.52;0.70;;;17.60;95.30;;;;;;4181013;28;20051;-73
2022/05/24 06:17:17;;;;;;;0.80;0.68;;;17.60;94.90;;;;;;4177063;28;20058;-72
2022/05/24 06:19:19;;;;;;;1.42;0.40;;;17.70;94.00;;;;;;4181704;28;20046;-73
2022/05/24 06:21:21;;;;;;;0.68;0.60;;;17.80;93.50;;;;;;4173184;28;20869;-72
2022/05/24 06:23:22;;;;;;;0.60;0.40;;;17.90;93.60;;;;;;4174490;28;21293;-73
2022/05/24 06:25:27;;;;;;;0.50;0.50;;;18.10;93.60;;;;;;4175767;28;20053;-73
2022/05/24 06:27:29;;;;;;;5.88;0.80;;;18.30;93.10;;;;;;4180364;28;20088;-73
2022/05/24 06:29:35;;;;;;;1.75;0.65;;;18.30;92.70;;;;;;4178656;28;20085;-73
2022/05/24 06:31:37;;;;;;;0.82;0.80;;;18.40;91.90;;;;;;4179322;28;20067;-73
2022/05/24 06:33:38;;;;;;;1.85;1.05;;;18.30;91.10;;;;;;4179360;28;20064;-72
2022/05/24 06:35:41;;;;;;;2.22;0.77;;;18.30;91.50;;;;;;4169069;28;20178;-73
2022/05/24 06:37:43;;;;;;;1.70;0.80;;;18.30;91.80;;;;;;4180924;28;20140;-73
2022/05/24 06:39:45;;;;;;;2.15;0.52;;;18.20;91.50;;;;;;4180804;28;20152;-73
2022/05/24 06:41:47;;;;;;;1.73;0.60;;;18.20;91.80;;;;;;4175741;28;20058;-72
2022/05/24 06:43:48;;;;;;;4.43;0.73;;;18.20;91.30;;;;;;4178023;28;20746;-72
2022/05/24 06:45:51;;;;;;;1.20;0.50;;;18.20;91.40;;;;;;4179266;28;20065;-72
2022/05/24 06:47:52;;;;;;;2.15;0.90;;;18.20;91.30;;;;;;4171598;28;20057;-72
2022/05/24 06:49:55;;;;;;;4.43;1.60;;;18.40;90.90;;;;;;4180252;28;20061;-72
2022/05/24 06:51:57;;;;;;;1.70;0.98;;;18.40;90.10;;;;;;4166262;28;20634;-74
2022/05/24 06:53:59;;;;;;;4.18;1.98;;;18.40;90.30;;;;;;4175890;28;20935;-75
2022/05/24 06:56:00;;;;;;;1.50;0.80;;;18.30;90.20;;;;;;4174187;28;20060;-79
2022/05/24 06:58:02;;;;;;;3.88;0.80;;;18.20;90.10;;;;;;4184076;28;20065;-76
2022/05/24 07:02:37;;;;;;;0.77;0.65;;;17.80;90.80;;;;;;4140666;28;20059;-76
2022/05/24 07:04:39;;;;;;;2.42;0.70;;;17.70;91.10;;;;;;4173713;28;20064;-75
2022/05/24 07:06:42;;;;;;;0.93;0.55;;;17.60;91.30;;;;;;4172783;28;20069;-73
2022/05/24 07:08:45;;;;;;;1.45;0.45;;;17.40;91.40;;;;;;4180576;28;20063;-75
2022/05/24 07:10:46;;;;;;;1.55;0.55;;;17.10;87.90;;;;;;4174747;28;20068;-74
2022/05/24 07:12:58;;;;;;;2.42;0.50;;;16.40;85.20;;;;;;4172152;28;20104;-73
2022/05/24 07:15:00;;;;;;;0.50;0.30;;;15.50;95.90;;;;;;4171105;28;20095;-72
2022/05/24 07:17:02;;;;;;;3.08;0.60;;;14.70;99.90;;;;;;4179859;28;20053;-72
2022/05/24 07:19:03;;;;;;;3.67;0.70;;;14.30;99.90;;;;;;4172991;28;20118;-74
2022/05/24 07:21:06;;;;;;;1.83;0.38;;;14.10;99.90;;;;;;4173465;28;20067;-72
2022/05/24 07:23:14;;;;;;;0.28;0.22;;;13.70;99.90;;;;;;4180205;28;20053;-74
2022/05/24 07:25:16;;;;;;;3.67;0.70;;;13.40;99.90;;;;;;4175954;28;20064;-72
2022/05/24 07:27:20;;;;;;;0.50;0.20;;;13.40;99.90;;;;;;4178115;28;20180;-72
2022/05/24 07:29:23;;;;;;;0.82;0.20;;;13.30;99.90;;;;;;4177302;28;20097;-72
2022/05/24 07:31:24;;;;;;;1.98;0.77;;;13.20;99.90;;;;;;4174486;28;20696;-73
2022/05/24 07:33:27;;;;;;;0.82;0.32;;;13.30;99.90;;;;;;4171123;28;20698;-73
2022/05/24 07:35:29;;;;;;;1.30;0.20;;;13.30;99.90;;;;;;4172699;28;20061;-71
2022/05/24 07:37:30;;;;;;;2.00;0.20;;;13.30;99.90;;;;;;4172312;28;20061;-73
2022/05/24 07:39:33;;;;;;;2.55;0.22;;;13.30;99.90;;;;;;4176506;28;20058;-72
2022/05/24 07:46:17;;;;;;;0.50;0.30;;;13.70;99.90;;;;;;4171977;28;20056;-77
2022/05/24 07:48:19;;;;;;;0.80;0.30;;;13.70;99.90;;;;;;4174408;28;20096;-75
2022/05/24 07:50:21;;;;;;;4.35;0.20;;;13.60;99.90;;;;;;4173831;28;20868;-73
2022/05/24 07:52:23;;;;;;;0.95;0.38;;;13.50;99.90;;;;;;4175864;28;20057;-73
2022/05/24 07:54:25;;;;;;;1.95;0.50;;;13.70;99.90;;;;;;4175711;28;20061;-75
2022/05/24 07:56:27;;;;;;;1.48;0.40;;;14.00;99.90;;;;;;4179352;28;20895;-74
2022/05/24 07:58:29;;;;;;;0.85;0.30;;;14.30;99.90;;;;;;4178299;28;20072;-76
2022/05/24 08:00:30;;;;;;;0.32;0.17;;;14.50;99.90;;;;;;4182186;28;20130;-74
2022/05/24 08:02:32;;;;;;;0.28;0.15;;;14.70;99.90;;;;;;4183929;28;20065;-73
2022/05/24 08:04:34;;;;;;;0.93;0.20;;;14.70;99.90;;;;;;4187715;28;20172;-75
2022/05/24 08:06:36;;;;;;;0.57;0.20;;;14.70;99.90;;;;;;4181976;28;20050;-73
2022/05/24 08:08:38;;;;;;;0.30;0.20;;;14.70;99.90;;;;;;4176094;28;20104;-73
2022/05/24 08:10:40;;;;;;;1.17;0.15;;;14.90;99.90;;;;;;4180108;28;20795;-74
2022/05/24 08:12:43;;;;;;;0.60;0.20;;;15.10;99.90;;;;;;4183219;28;20907;-75
2022/05/24 08:14:44;;;;;;;1.48;0.20;;;15.30;98.70;;;;;;4182283;28;20062;-74
2022/05/24 08:16:47;;;;;;;0.10;0.10;;;15.30;99.10;;;;;;4178866;28;20061;-74
2022/05/24 08:18:49;;;;;;;0.13;0.10;;;15.40;97.70;;;;;;4182743;28;20057;-77
2022/05/24 08:20:52;;;;;;;1.55;0.20;;;15.60;97.00;;;;;;4180347;28;20061;-73
2022/05/24 08:22:53;;;;;;;0.20;0.20;;;15.70;97.10;;;;;;4178742;28;21060;-74
2022/05/24 08:24:55;;;;;;;1.85;0.20;;;15.70;96.50;;;;;;4166398;28;20066;-74
2022/05/24 08:26:57;;;;;;;0.30;0.20;;;15.80;97.30;;;;;;4176052;28;20053;-74
2022/05/24 08:28:59;;;;;;;1.02;0.20;;;16.00;96.30;;;;;;4181911;28;20065;-75
2022/05/24 08:31:00;;;;;;;0.70;0.22;;;16.00;94.90;;;;;;4171477;28;20066;-73
2022/05/24 08:33:04;;;;;;;0.20;0.20;;;16.10;95.20;;;;;;4178521;28;20037;-74
2022/05/24 08:35:07;;;;;;;0.57;0.17;;;16.00;93.80;;;;;;4177072;28;20115;-75
2022/05/24 08:37:12;;;;;;;0.85;0.10;;;16.10;93.70;;;;;;4169604;28;20088;-74
2022/05/24 08:39:14;;;;;;;0.30;0.30;;;16.00;93.50;;;;;;4197036;22;20061;-73
2022/05/24 08:41:26;;;;;;;0.10;0.10;;;16.00;92.00;;;;;;4174215;28;20180;-72
2022/05/24 08:43:38;;;;;;;0.93;0.15;;;16.10;92.20;;;;;;4174397;28;20049;-72
2022/05/24 08:48:35;;;;;;;0.38;0.10;;;16.30;90.50;;;;;;4178867;28;20068;-73
2022/05/24 08:50:37;;;;;;;4.10;0.20;;;16.30;90.60;;;;;;4155942;28;20655;-73
2022/05/24 08:52:53;;;;;;;0.20;0.20;;;16.40;91.30;;;;;;4158219;28;20058;-73
2022/05/24 08:54:57;;;;;;;0.20;0.10;;;16.50;91.20;;;;;;4161067;28;20883;-73
2022/05/24 08:57:04;;;;;;;0.10;0.10;;;16.60;90.90;;;;;;4161942;28;20058;-73
2022/05/24 08:59:23;;;;;;;1.85;0.30;;;16.60;89.80;;;;;;4176075;28;20110;-72
2022/05/24 09:01:29;;;;;;;0.82;0.22;;;16.80;89.60;;;;;;4160153;28;20054;-75
2022/05/24 09:03:31;;;;;;;0.20;0.10;;;17.10;87.90;;;;;;4153889;28;20855;-73
2022/05/24 09:05:37;;;;;;;0.28;0.10;;;17.10;86.20;;;;;;4154127;28;20058;-73
2022/05/24 09:08:05;;;;;;;0.77;0.10;;;17.20;86.40;;;;;;4154865;28;21235;-74
2022/05/24 09:10:14;;;;;;;1.98;0.10;;;17.20;83.80;;;;;;4158024;28;20069;-73
2022/05/24 09:12:44;;;;;;;0.47;0.17;;;17.10;84.70;;;;;;4152052;28;20104;-73
2022/05/24 09:15:11;;;;;;;0.10;0.10;;;17.30;84.10;;;;;;4154860;28;20185;-74
2022/05/24 09:17:52;;;;;;;0.30;0.30;;;17.50;84.70;;;;;;4151704;28;20058;-73
2022/05/24 09:19:53;;;;;;;;;;;17.40;79.90;;;;;;4155379;28;20054;-74
2022/05/24 09:21:55;;;;;;;0.50;0.10;;;17.10;82.10;;;;;;4153989;28;19930;-73
2022/05/24 09:24:11;;;;;;;0.13;0.10;;;17.00;81.90;;;;;;4159982;28;20160;-73
2022/05/24 09:26:20;;;;;;;0.38;0.20;;;17.10;84.50;;;;;;4160064;28;20060;-73
2022/05/24 09:28:41;;;;;;;2.10;0.28;;;17.10;83.60;;;;;;4173242;28;20109;-74
2022/05/24 09:30:43;;;;;;;0.20;0.20;;;17.10;81.80;;;;;;4160839;28;20062;-73
2022/05/24 09:32:46;;;;;;;0.73;0.20;;;17.10;83.50;;;;;;4160335;28;20054;-73
2022/05/24 09:35:05;;;;;;;0.20;0.20;;;17.10;84.30;;;;;;4159906;28;20057;-73
2022/05/24 09:37:25;;;;;;;0.75;0.30;;;17.40;82.80;;;;;;4161725;28;20849;-73
2022/05/24 09:39:30;;;;;;;2.00;0.10;;;17.80;81.50;;;;;;4162426;28;20157;-75
2022/05/24 09:41:32;;;;;;;0.45;0.10;;;17.90;75.20;;;;;;4161123;28;20057;-75
2022/05/24 09:43:36;;;;;;;0.20;0.20;;;18.00;74.30;;;;;;4161560;28;20050;-73
2022/05/24 09:45:46;;;;;;;0.13;0.13;;;18.10;73.70;;;;;;4159696;28;20788;-73
2022/05/24 09:47:48;;;;;;;0.98;0.20;;;18.00;75.00;;;;;;4158715;28;20907;-73
2022/05/24 09:49:49;;;;;;;0.38;0.22;;;17.90;76.40;;;;;;4155825;28;20068;-72
2022/05/24 09:51:56;;;;;;;0.82;0.10;;;17.80;76.70;;;;;;4155492;28;20057;-73
2022/05/24 09:53:58;;;;;;;0.25;0.22;;;17.70;75.70;;;;;;4158538;28;20184;-73
2022/05/24 09:56:05;;;;;;;0.38;0.10;;;17.80;76.70;;;;;;4157704;28;20097;-73
2022/05/24 09:58:21;;;;;;;0.82;0.50;;;17.70;74.30;;;;;;4158396;28;20149;-72
2022/05/24 10:00:23;;;;;;;0.10;0.10;;;17.50;74.40;;;;;;4157814;28;20161;-73
2022/05/24 10:02:29;;;;;;;1.38;0.45;;;17.50;74.90;;;;;;4152437;28;20062;-73
2022/05/24 10:04:37;;;;;;;1.27;0.70;;;17.30;74.80;;;;;;4159188;28;20061;-72
2022/05/24 10:06:41;;;;;;;0.30;0.30;;;17.20;75.60;;;;;;4155523;28;20058;-73
2022/05/24 10:08:52;;;;;;;1.25;0.32;;;17.20;77.70;;;;;;4158606;28;20058;-74
2022/05/24 10:10:57;;;;;;;1.25;0.20;;;17.30;76.60;;;;;;4158760;28;20108;-72
2022/05/24 10:13:19;;;;;;;1.00;0.30;;;17.30;75.90;;;;;;4154952;28;20054;-73
2022/05/24 10:15:23;;;;;;;0.85;0.17;;;17.40;75.00;;;;;;4155331;28;20060;-72
2022/05/24 10:17:37;;;;;;;0.28;0.17;;;17.40;76.10;;;;;;4154514;28;20058;-73
2022/05/24 10:19:57;;;;;;;0.35;0.20;;;17.50;74.90;;;;;;4152149;28;20821;-74
2022/05/24 10:22:28;;;;;;;0.20;0.20;;;17.70;76.10;;;;;;4156235;28;20064;-73
2022/05/24 10:24:50;;;;;;;;;;;17.80;74.20;;;;;;4142134;28;20163;-73
2022/05/24 10:27:01;;;;;;;3.75;0.85;;;17.90;74.10;;;;;;4148082;28;20759;-73
2022/05/24 10:29:19;;;;;;;;;;;17.90;72.30;;;;;;4156817;28;20120;-74
2022/05/24 10:31:36;;;;;;;0.22;0.20;;;17.80;71.40;;;;;;4155469;28;19929;-74
2022/05/24 10:38:45;;;;;;;0.80;0.20;;;18.10;70.20;;;;;;4151563;28;20158;-73
2022/05/24 10:41:05;;;;;;;1.58;0.28;;;18.40;69.60;;;;;;4150161;28;20944;-73
2022/05/24 10:43:37;;;;;;;0.30;0.20;;;18.50;69.20;;;;;;4154686;28;20085;-72
2022/05/24 10:45:51;;;;;;;0.55;0.25;;;18.30;68.00;;;;;;4152312;28;20064;-73
2022/05/24 10:48:02;;;;;;;0.68;0.30;;;18.00;68.20;;;;;;4152326;28;20792;-73
2022/05/24 10:50:17;;;;;;;0.60;0.30;;;17.90;69.60;;;;;;4158768;28;20786;-73
2022/05/24 10:52:31;;;;;;;0.98;0.20;;;18.00;69.90;;;;;;4157244;28;20062;-73
2022/05/24 10:54:58;;;;;;;0.55;0.40;;;18.00;70.50;;;;;;4153649;28;20084;-74
2022/05/24 10:57:10;;;;;;;0.20;0.20;;;18.10;70.90;;;;;;4159947;28;20197;-74
2022/05/24 10:59:22;;;;;;;0.30;0.20;;;18.20;69.50;;;;;;4158508;28;20101;-74
2022/05/24 11:01:37;;;;;;;0.20;0.13;;;18.30;70.90;;;;;;4153443;28;21218;-74
2022/05/24 11:03:47;;;;;;;0.30;0.25;;;18.30;68.20;;;;;;4154990;28;20153;-73
2022/05/24 11:05:57;;;;;;;0.30;0.10;;;18.50;71.20;;;;;;4155850;28;20062;-73
2022/05/24 11:08:31;;;;;;;0.20;0.20;;;18.50;66.40;;;;;;4156958;28;20752;-73
2022/05/24 11:10:39;;;;;;;1.17;0.25;;;18.40;68.50;;;;;;4140055;28;20065;-74
2022/05/24 11:12:49;;;;;;;0.82;0.20;;;18.30;68.70;;;;;;4158607;28;20789;-74
2022/05/24 11:15:05;;;;;;;1.40;0.25;;;18.30;68.70;;;;;;4159540;28;20093;-74
2022/05/24 11:17:10;;;;;;;0.20;0.10;;;18.40;69.50;;;;;;4159929;28;20807;-74
2022/05/24 11:19:16;;;;;;;0.32;0.20;;;18.40;68.20;;;;;;4159361;28;20057;-73
2022/05/24 11:21:28;;;;;;;9.00;0.52;;;18.30;66.90;;;;;;4156207;28;20234;-74
2022/05/24 11:23:58;;;;;;;1.17;0.20;;;18.20;68.10;;;;;;4160123;28;20054;-73
2022/05/24 11:26:13;;;;;;;0.28;0.20;;;18.20;68.50;;;;;;4161829;28;20132;-73
2022/05/24 11:28:30;;;;;;;1.25;0.20;;;18.20;68.90;;;;;;4158699;28;20058;-73
2022/05/24 11:30:40;;;;;;;0.63;0.47;;;18.30;68.00;;;;;;4158616;28;20065;-73